createdAt,value
2022-08-01T00:00:12.699Z,1.58
2022-08-01T00:02:42.081Z,1.63
2022-08-01T00:05:11.710Z,1.60
2022-08-01T00:07:40.900Z,1.42
2022-08-01T00:10:11.272Z,1.60
2022-08-01T00:12:39.838Z,1.83
2022-08-01T00:15:11.692Z,1.60
2022-08-01T00:17:40.439Z,1.60
2022-08-01T00:20:11.456Z,1.50
2022-08-01T00:22:39.832Z,1.73
2022-08-01T00:25:09.370Z,1.67
2022-08-01T00:27:37.868Z,1.52
2022-08-01T00:30:11.221Z,1.30
2022-08-01T00:32:44.312Z,1.92
2022-08-01T00:35:13.378Z,1.80
2022-08-01T00:37:42.028Z,1.60
2022-08-01T00:40:10.751Z,1.70
2022-08-01T00:42:43.534Z,1.50
2022-08-01T00:45:13.008Z,1.20
2022-08-01T00:47:41.614Z,1.80
2022-08-01T00:50:12.771Z,1.60
2022-08-01T00:52:42.800Z,1.70
2022-08-01T00:55:21.726Z,1.60
2022-08-01T00:58:02.401Z,1.80
2022-08-01T01:00:34.535Z,1.88
2022-08-01T01:03:03.616Z,1.60
2022-08-01T01:05:46.923Z,1.75
2022-08-01T01:08:21.264Z,1.77
2022-08-01T01:10:57.302Z,1.50
2022-08-01T01:13:30.768Z,1.65
2022-08-01T01:16:02.866Z,1.80
2022-08-01T01:18:47.590Z,1.65
2022-08-01T01:21:41.088Z,1.60
2022-08-01T01:24:20.240Z,1.60
2022-08-01T01:26:55.430Z,1.63
2022-08-01T01:29:30.628Z,1.88
2022-08-01T01:32:30.961Z,1.50
2022-08-01T01:35:01.085Z,1.60
2022-08-01T01:37:32.433Z,1.80
2022-08-01T01:40:02.503Z,1.70
2022-08-01T01:42:32.297Z,1.80
2022-08-01T01:45:05.082Z,1.40
2022-08-01T01:47:34.946Z,1.60
2022-08-01T01:50:05.658Z,1.63
2022-08-01T01:52:35.131Z,1.88
2022-08-01T01:55:07.846Z,1.85
2022-08-01T01:57:41.642Z,1.42
2022-08-01T02:00:13.273Z,1.90
2022-08-01T02:02:43.670Z,1.70
2022-08-01T02:05:13.504Z,1.85
2022-08-01T02:07:42.337Z,1.42
2022-08-01T02:10:12.275Z,1.70
2022-08-01T02:12:44.106Z,1.77
2022-08-01T02:15:14.705Z,1.73
2022-08-01T02:17:46.438Z,1.88
2022-08-01T02:20:15.506Z,1.60
2022-08-01T02:22:47.211Z,1.73
2022-08-01T02:25:21.270Z,1.60
2022-08-01T02:27:54.432Z,1.50
2022-08-01T02:30:26.903Z,1.85
2022-08-01T02:33:02.108Z,1.70
2022-08-01T02:35:32.951Z,1.67
2022-08-01T02:38:04.013Z,1.60
2022-08-01T02:40:34.999Z,1.42
2022-08-01T02:43:05.997Z,1.60
2022-08-01T02:45:39.937Z,1.80
2022-08-01T02:48:12.802Z,1.63
2022-08-01T02:50:44.646Z,1.75
2022-08-01T02:53:15.116Z,1.80
2022-08-01T02:55:46.458Z,1.60
2022-08-01T02:58:16.690Z,1.73
2022-08-01T03:00:49.494Z,1.50
2022-08-01T03:03:19.075Z,1.50
2022-08-01T03:05:48.198Z,1.55
2022-08-01T03:08:17.490Z,1.75
2022-08-01T03:10:48.343Z,1.92
2022-08-01T03:13:18.032Z,1.50
2022-08-01T03:15:49.421Z,1.73
2022-08-01T03:18:21.699Z,1.60
2022-08-01T03:20:51.374Z,1.70
2022-08-01T03:23:20.749Z,1.80
2022-08-01T03:25:52.038Z,1.25
2022-08-01T03:28:22.738Z,1.35
2022-08-01T03:31:00.427Z,1.50
2022-08-01T03:33:28.672Z,2.08
2022-08-01T03:35:58.817Z,1.92
2022-08-01T03:38:29.676Z,2.10
2022-08-01T03:41:05.315Z,1.63
2022-08-01T03:43:38.500Z,1.52
2022-08-01T03:46:11.490Z,1.83
2022-08-01T03:48:45.246Z,1.60
2022-08-01T03:51:14.959Z,1.90
2022-08-01T03:53:44.800Z,1.90
2022-08-01T03:56:14.653Z,2.00
2022-08-01T03:58:45.006Z,1.50
2022-08-01T04:01:20.879Z,1.75
2022-08-01T04:03:49.691Z,1.40
2022-08-01T04:06:18.722Z,1.88
2022-08-01T04:08:56.878Z,1.80
2022-08-01T04:11:26.893Z,1.73
2022-08-01T04:13:56.144Z,1.60
2022-08-01T04:16:27.592Z,1.40
2022-08-01T04:18:56.125Z,1.70
2022-08-01T04:21:28.655Z,1.70
2022-08-01T04:24:01.697Z,1.40
2022-08-01T04:26:32.166Z,1.63
2022-08-01T04:29:03.292Z,1.42
2022-08-01T04:31:33.969Z,1.95
2022-08-01T04:34:05.934Z,1.38
2022-08-01T04:36:37.671Z,1.80
2022-08-01T04:39:08.023Z,1.80
2022-08-01T04:41:37.712Z,1.70
2022-08-01T04:44:06.564Z,1.60
2022-08-01T04:46:38.317Z,1.35
2022-08-01T04:49:10.049Z,1.65
2022-08-01T04:51:38.666Z,1.63
2022-08-01T04:54:08.416Z,1.63
2022-08-01T04:56:36.990Z,1.92
2022-08-01T04:59:22.460Z,1.90
2022-08-01T05:01:53.101Z,1.60
2022-08-01T05:04:21.236Z,1.58
2022-08-01T05:06:49.737Z,1.60
2022-08-01T05:09:19.043Z,1.42
2022-08-01T05:11:47.580Z,1.90
2022-08-01T05:14:15.876Z,1.60
2022-08-01T05:16:44.420Z,1.83
2022-08-01T05:19:14.189Z,1.70
2022-08-01T05:21:42.743Z,1.60
2022-08-01T05:24:10.814Z,1.35
2022-08-01T05:26:40.458Z,1.65
2022-08-01T05:29:09.041Z,1.60
2022-08-01T05:31:37.175Z,1.83
2022-08-01T05:34:05.488Z,1.48
2022-08-01T05:36:35.471Z,1.48
2022-08-01T05:39:03.573Z,1.90
2022-08-01T05:41:32.634Z,1.50
2022-08-01T05:44:01.287Z,1.42
2022-08-01T05:46:31.069Z,1.55
2022-08-01T05:49:00.022Z,1.70
2022-08-01T05:51:28.568Z,1.60
2022-08-01T05:53:59.091Z,1.27
2022-08-01T05:56:32.102Z,1.52
2022-08-01T05:59:00.469Z,1.40
2022-08-01T06:01:28.961Z,1.40
2022-08-01T06:03:57.659Z,1.20
2022-08-01T06:06:25.783Z,1.42
2022-08-01T06:08:54.359Z,1.20
2022-08-01T06:11:24.310Z,1.50
2022-08-01T06:13:52.437Z,1.70
2022-08-01T06:16:20.971Z,1.60
2022-08-01T06:18:49.104Z,1.55
2022-08-01T06:21:17.378Z,1.50
2022-08-01T06:23:45.919Z,1.48
2022-08-01T06:26:14.498Z,1.48
2022-08-01T06:28:43.961Z,1.30
2022-08-01T06:31:14.107Z,1.25
2022-08-01T06:33:42.270Z,1.52
2022-08-01T06:36:10.812Z,1.40
2022-08-01T06:38:40.423Z,1.23
2022-08-01T06:41:08.512Z,1.35
2022-08-01T06:43:37.021Z,1.55
2022-08-01T06:46:06.725Z,1.48
2022-08-01T06:48:36.404Z,1.38
2022-08-01T06:51:10.695Z,1.55
2022-08-01T06:53:39.819Z,1.52
2022-08-01T06:56:10.065Z,1.38
2022-08-01T06:58:38.178Z,1.60
2022-08-01T07:01:08.376Z,1.40
2022-08-01T07:03:52.700Z,1.45
2022-08-01T07:06:23.186Z,1.17
2022-08-01T07:08:51.468Z,1.23
2022-08-01T07:11:19.849Z,1.40
2022-08-01T07:13:48.374Z,1.25
2022-08-01T07:16:19.063Z,1.50
2022-08-01T07:18:47.176Z,1.35
2022-08-01T07:21:38.934Z,1.67
2022-08-01T07:24:12.588Z,1.40
2022-08-01T07:26:53.335Z,1.35
2022-08-01T07:29:24.314Z,1.38
2022-08-01T07:31:54.531Z,1.20
2022-08-01T07:34:23.226Z,1.10
2022-08-01T07:36:51.600Z,1.20
2022-08-01T07:39:19.865Z,1.05
2022-08-01T07:42:06.252Z,1.50
2022-08-01T07:44:36.535Z,1.00
2022-08-01T07:47:07.331Z,1.30
2022-08-01T07:49:40.008Z,1.38
2022-08-01T07:52:09.479Z,1.40
2022-08-01T07:54:38.020Z,1.60
2022-08-01T07:57:06.460Z,1.23
2022-08-01T07:59:35.147Z,1.15
2022-08-01T08:02:08.376Z,1.55
2022-08-01T08:04:36.605Z,1.40
2022-08-01T08:07:05.585Z,1.25
2022-08-01T08:09:37.319Z,1.30
2022-08-01T08:12:08.477Z,1.50
2022-08-01T08:14:36.987Z,1.20
2022-08-01T08:17:05.366Z,1.27
2022-08-01T08:19:39.184Z,1.50
2022-08-01T08:22:08.726Z,1.20
2022-08-01T08:24:41.349Z,1.25
2022-08-01T08:27:15.040Z,1.20
2022-08-01T08:29:43.637Z,1.10
2022-08-01T08:32:13.569Z,1.23
2022-08-01T08:34:43.544Z,1.20
2022-08-01T08:37:12.602Z,1.20
2022-08-01T08:39:41.667Z,1.10
2022-08-01T08:42:12.143Z,1.30
2022-08-01T08:44:43.540Z,1.10
2022-08-01T08:47:19.693Z,1.40
2022-08-01T08:49:51.102Z,1.08
2022-08-01T08:52:22.285Z,1.00
2022-08-01T08:54:51.754Z,1.10
2022-08-01T08:57:22.469Z,1.10
2022-08-01T08:59:52.954Z,1.25
2022-08-01T09:02:21.672Z,1.15
2022-08-01T09:04:52.254Z,1.10
2022-08-01T09:07:20.340Z,0.93
2022-08-01T09:09:51.544Z,1.08
2022-08-01T09:12:20.497Z,0.93
2022-08-01T09:14:51.520Z,1.00
2022-08-01T09:17:19.643Z,0.93
2022-08-01T09:19:50.045Z,1.00
2022-08-01T09:22:22.426Z,0.73
2022-08-01T09:25:09.663Z,1.05
2022-08-01T09:27:44.116Z,1.27
2022-08-01T09:30:17.103Z,1.58
2022-08-01T09:32:58.306Z,1.10
2022-08-01T09:35:30.965Z,0.90
2022-08-01T09:38:21.719Z,1.17
2022-08-01T09:40:52.898Z,0.90
2022-08-01T09:43:23.199Z,1.20
2022-08-01T09:45:52.952Z,0.80
2022-08-01T09:48:28.297Z,0.98
2022-08-01T09:51:03.894Z,0.93
2022-08-01T09:53:52.091Z,0.98
2022-08-01T09:56:22.258Z,1.15
2022-08-01T09:58:59.978Z,0.90
2022-08-01T10:01:37.499Z,1.20
2022-08-01T10:04:09.776Z,1.20
2022-08-01T10:06:39.516Z,1.33
2022-08-01T10:09:10.930Z,1.40
2022-08-01T10:11:40.603Z,0.93
2022-08-01T10:14:09.600Z,0.90
2022-08-01T10:16:39.683Z,0.73
2022-08-01T10:19:14.537Z,1.02
2022-08-01T10:21:56.343Z,0.93
2022-08-01T10:24:30.120Z,1.15
2022-08-01T10:27:05.863Z,0.60
2022-08-01T10:29:46.229Z,0.90
2022-08-01T10:32:29.730Z,0.90
2022-08-01T10:34:58.453Z,0.73
2022-08-01T10:37:27.186Z,0.88
2022-08-01T10:40:27.140Z,1.00
2022-08-01T10:42:47.130Z,0.80
2022-08-01T10:45:17.687Z,1.10
2022-08-01T10:47:53.467Z,0.90
2022-08-01T10:50:28.929Z,0.70
2022-08-01T10:53:16.247Z,1.00
2022-08-01T10:56:01.453Z,0.85
2022-08-01T10:58:39.558Z,1.00
2022-08-01T11:01:26.463Z,1.10
2022-08-01T11:04:13.790Z,0.90
2022-08-01T11:06:54.914Z,0.82
2022-08-01T11:09:36.442Z,1.27
2022-08-01T11:12:13.110Z,0.80
2022-08-01T11:15:28.696Z,0.70
2022-08-01T11:18:01.403Z,1.02
2022-08-01T11:20:32.816Z,0.80
2022-08-01T11:23:35.886Z,0.73
2022-08-01T11:26:29.308Z,0.88
2022-08-01T11:29:21.228Z,0.75
2022-08-01T11:31:50.867Z,0.75
2022-08-01T11:34:19.165Z,0.75
2022-08-01T11:36:59.015Z,1.00
2022-08-01T11:39:28.243Z,0.75
2022-08-01T11:42:18.221Z,0.90
2022-08-01T11:44:53.660Z,0.80
2022-08-01T11:47:46.358Z,0.70
2022-08-01T11:50:38.026Z,1.00
2022-08-01T11:53:09.156Z,0.75
2022-08-01T11:55:39.478Z,0.80
2022-08-01T11:58:22.490Z,0.82
2022-08-01T12:01:00.625Z,1.00
2022-08-01T12:03:33.429Z,1.10
2022-08-01T12:06:02.457Z,0.95
2022-08-01T12:08:33.945Z,0.82
2022-08-01T12:11:03.425Z,1.20
2022-08-01T12:13:43.302Z,1.10
2022-08-01T12:16:13.922Z,1.00
2022-08-01T12:18:43.240Z,0.95
2022-08-01T12:21:11.400Z,0.85
2022-08-01T12:23:39.608Z,0.75
2022-08-01T12:26:08.166Z,0.98
2022-08-01T12:28:41.709Z,1.30
2022-08-01T12:31:10.331Z,0.93
2022-08-01T12:33:42.297Z,1.00
2022-08-01T12:36:14.643Z,0.90
2022-08-01T12:38:43.576Z,1.10
2022-08-01T12:41:12.977Z,0.88
2022-08-01T12:43:42.601Z,1.17
2022-08-01T12:46:17.132Z,0.80
2022-08-01T12:48:47.876Z,0.98
2022-08-01T12:51:16.178Z,0.80
2022-08-01T12:53:44.760Z,0.73
2022-08-01T12:56:13.453Z,0.90
2022-08-01T12:58:41.825Z,0.80
2022-08-01T13:01:13.454Z,0.90
2022-08-01T13:03:41.981Z,0.77
2022-08-01T13:06:17.150Z,0.80
2022-08-01T13:08:47.451Z,0.77
2022-08-01T13:11:18.261Z,0.73
2022-08-01T13:13:49.775Z,0.73
2022-08-01T13:16:27.918Z,0.82
2022-08-01T13:19:07.919Z,0.88
2022-08-01T13:21:54.107Z,0.70
2022-08-01T13:24:28.464Z,0.90
2022-08-01T13:27:00.161Z,0.60
2022-08-01T13:29:33.526Z,0.80
2022-08-01T13:32:27.755Z,0.55
2022-08-01T13:35:04.446Z,1.00
2022-08-01T13:37:33.987Z,0.98
2022-08-01T13:40:02.533Z,0.93
2022-08-01T13:42:31.249Z,0.90
2022-08-01T13:44:59.796Z,0.75
2022-08-01T13:47:31.267Z,0.60
2022-08-01T13:50:01.937Z,0.80
2022-08-01T13:52:32.083Z,0.88
2022-08-01T13:55:03.468Z,0.70
2022-08-01T13:57:39.509Z,0.90
2022-08-01T14:00:10.171Z,0.63
2022-08-01T14:02:39.046Z,0.68
2022-08-01T14:05:07.980Z,0.77
2022-08-01T14:07:36.490Z,0.60
2022-08-01T14:10:19.813Z,0.73
2022-08-01T14:12:48.716Z,0.63
2022-08-01T14:15:38.418Z,0.57
2022-08-01T14:18:05.876Z,0.60
2022-08-01T14:20:35.000Z,0.90
2022-08-01T14:23:03.140Z,0.80
2022-08-01T14:26:01.453Z,0.52
2022-08-01T14:28:22.071Z,0.70
2022-08-01T14:30:50.142Z,0.75
2022-08-01T14:33:18.763Z,0.50
2022-08-01T14:36:05.677Z,1.00
2022-08-01T14:38:35.409Z,0.60
2022-08-01T14:41:04.977Z,0.85
2022-08-01T14:43:34.382Z,0.70
2022-08-01T14:46:04.931Z,0.82
2022-08-01T14:48:33.670Z,0.50
2022-08-01T14:51:04.284Z,0.80
2022-08-01T14:53:35.902Z,0.55
2022-08-01T14:56:06.460Z,0.60
2022-08-01T14:58:34.755Z,0.73
2022-08-01T15:01:03.836Z,0.57
2022-08-01T15:03:33.188Z,0.60
2022-08-01T15:06:01.474Z,0.45
2022-08-01T15:08:31.374Z,0.40
2022-08-01T15:10:59.910Z,0.57
2022-08-01T15:13:31.678Z,0.82
2022-08-01T15:16:00.488Z,0.63
2022-08-01T15:18:29.513Z,0.47
2022-08-01T15:20:58.360Z,0.38
2022-08-01T15:23:26.521Z,0.70
2022-08-01T15:25:55.345Z,0.70
2022-08-01T15:28:23.416Z,0.55
2022-08-01T15:30:53.344Z,0.60
2022-08-01T15:33:22.673Z,0.70
2022-08-01T15:35:52.906Z,0.60
2022-08-01T15:38:22.949Z,0.50
2022-08-01T15:40:51.482Z,0.57
2022-08-01T15:43:19.666Z,0.40
2022-08-01T15:45:49.440Z,0.50
2022-08-01T15:48:19.328Z,0.52
2022-08-01T15:50:47.864Z,0.60
2022-08-01T15:53:16.019Z,0.70
2022-08-01T15:55:52.673Z,0.60
2022-08-01T15:58:21.848Z,0.63
2022-08-01T16:00:50.381Z,0.85
2022-08-01T16:03:20.368Z,0.65
2022-08-01T16:05:50.572Z,0.47
2022-08-01T16:08:18.924Z,0.60
2022-08-01T16:10:47.058Z,0.57
2022-08-01T16:13:15.311Z,0.50
2022-08-01T16:15:45.176Z,0.65
2022-08-01T16:18:14.546Z,0.80
2022-08-01T16:20:46.066Z,0.60
2022-08-01T16:23:15.655Z,0.55
2022-08-01T16:25:45.165Z,0.55
2022-08-01T16:28:14.308Z,0.50
2022-08-01T16:30:52.163Z,0.60
2022-08-01T16:33:45.047Z,0.50
2022-08-01T16:36:21.647Z,0.60
2022-08-01T16:38:51.790Z,0.52
2022-08-01T16:41:20.594Z,0.60
2022-08-01T16:43:53.633Z,0.73
2022-08-01T16:46:24.142Z,0.50
2022-08-01T16:48:52.505Z,0.50
2022-08-01T16:51:22.547Z,0.55
2022-08-01T16:53:51.211Z,0.70
2022-08-01T16:56:20.668Z,0.70
2022-08-01T16:58:48.789Z,0.70
2022-08-01T17:01:52.808Z,0.80
2022-08-01T17:04:07.045Z,0.85
2022-08-01T17:06:36.640Z,0.70
2022-08-01T17:09:05.033Z,0.60
2022-08-01T17:11:33.415Z,0.77
2022-08-01T17:14:01.495Z,0.70
2022-08-01T17:16:30.041Z,0.63
2022-08-01T17:18:58.275Z,0.50
2022-08-01T17:21:26.397Z,0.75
2022-08-01T17:23:56.412Z,0.90
2022-08-01T17:26:24.546Z,0.80
2022-08-01T17:28:53.079Z,0.70
2022-08-01T17:31:21.173Z,0.85
2022-08-01T17:33:54.509Z,1.10
2022-08-01T17:36:23.227Z,0.60
2022-08-01T17:38:51.359Z,1.10
2022-08-01T17:41:20.976Z,1.17
2022-08-01T17:43:49.493Z,0.98
2022-08-01T17:46:18.497Z,0.95
2022-08-01T17:48:47.127Z,1.05
2022-08-01T17:51:19.324Z,1.00
2022-08-01T17:53:53.186Z,0.95
2022-08-01T17:56:26.651Z,0.98
2022-08-01T17:58:55.255Z,1.27
2022-08-01T18:01:26.693Z,1.60
2022-08-01T18:03:57.755Z,1.10
2022-08-01T18:06:26.718Z,0.95
2022-08-01T18:08:56.635Z,1.30
2022-08-01T18:11:29.303Z,1.50
2022-08-01T18:14:06.398Z,1.20
2022-08-01T18:16:35.041Z,1.20
2022-08-01T18:19:03.567Z,1.10
2022-08-01T18:21:34.109Z,1.17
2022-08-01T18:24:02.951Z,1.20
2022-08-01T18:26:32.423Z,1.50
2022-08-01T18:29:00.548Z,1.15
2022-08-01T18:31:29.091Z,1.38
2022-08-01T18:33:57.200Z,1.33
2022-08-01T18:36:32.684Z,1.30
2022-08-01T18:39:04.298Z,1.40
2022-08-01T18:41:34.861Z,1.25
2022-08-01T18:44:05.747Z,1.50
2022-08-01T18:46:37.366Z,1.40
2022-08-01T18:49:06.538Z,1.17
2022-08-01T18:51:38.935Z,1.38
2022-08-01T18:54:11.465Z,1.25
2022-08-01T18:56:41.084Z,1.45
2022-08-01T18:59:09.785Z,1.10
2022-08-01T19:01:39.703Z,1.05
2022-08-01T19:04:08.771Z,1.80
2022-08-01T19:06:37.267Z,1.40
2022-08-01T19:09:05.914Z,1.25
2022-08-01T19:11:35.183Z,1.50
2022-08-01T19:14:04.809Z,1.25
2022-08-01T19:16:33.529Z,1.50
2022-08-01T19:19:04.822Z,1.30
2022-08-01T19:21:33.596Z,1.30
2022-08-01T19:24:23.476Z,1.85
2022-08-01T19:26:54.410Z,1.38
2022-08-01T19:29:35.052Z,1.27
2022-08-01T19:32:06.458Z,1.60
2022-08-01T19:34:36.778Z,1.23
2022-08-01T19:37:05.553Z,1.38
2022-08-01T19:39:33.880Z,1.10
2022-08-01T19:42:04.075Z,1.45
2022-08-01T19:44:34.140Z,1.13
2022-08-01T19:47:03.305Z,1.52
2022-08-01T19:49:31.534Z,1.20
2022-08-01T19:52:03.187Z,1.60
2022-08-01T19:54:35.672Z,1.30
2022-08-01T19:57:07.099Z,1.30
2022-08-01T19:59:37.888Z,1.40
2022-08-01T20:02:07.747Z,1.38
2022-08-01T20:04:37.767Z,1.60
2022-08-01T20:07:06.175Z,1.35
2022-08-01T20:09:35.537Z,1.50
2022-08-01T20:12:04.235Z,1.45
2022-08-01T20:14:32.631Z,1.55
2022-08-01T20:17:02.962Z,1.50
2022-08-01T20:19:32.542Z,1.63
2022-08-01T20:22:04.527Z,1.38
2022-08-01T20:24:39.513Z,1.50
2022-08-01T20:27:10.600Z,1.30
2022-08-01T20:29:39.770Z,1.60
2022-08-01T20:32:10.216Z,1.60
2022-08-01T20:34:40.463Z,1.80
2022-08-01T20:37:12.959Z,1.38
2022-08-01T20:39:44.899Z,1.40
2022-08-01T20:42:15.261Z,1.55
2022-08-01T20:44:45.440Z,1.98
2022-08-01T20:47:16.133Z,1.60
2022-08-01T20:49:45.546Z,1.52
2022-08-01T20:52:13.669Z,1.40
2022-08-01T20:54:42.654Z,1.30
2022-08-01T20:57:16.577Z,1.80
2022-08-01T20:59:55.860Z,1.50
2022-08-01T21:02:48.238Z,1.35
2022-08-01T21:05:23.121Z,1.48
2022-08-01T21:07:54.161Z,1.38
2022-08-01T21:10:26.482Z,1.60
2022-08-01T21:13:02.992Z,1.40
2022-08-01T21:15:32.853Z,1.60
2022-08-01T21:18:08.508Z,1.50
2022-08-01T21:20:41.173Z,1.58
2022-08-01T21:23:21.883Z,1.58
2022-08-01T21:25:50.134Z,1.40
2022-08-01T21:28:20.490Z,1.77
2022-08-01T21:30:53.739Z,1.60
2022-08-01T21:33:26.996Z,1.27
2022-08-01T21:35:59.145Z,1.40
2022-08-01T21:38:30.252Z,1.80
2022-08-01T21:41:01.562Z,1.50
2022-08-01T21:43:34.762Z,2.03
2022-08-01T21:46:03.947Z,2.13
2022-08-01T21:48:34.241Z,2.10
2022-08-01T21:51:06.735Z,1.70
2022-08-01T21:53:47.556Z,1.70
2022-08-01T21:56:28.178Z,1.60
2022-08-01T21:59:03.911Z,1.55
2022-08-01T22:01:51.386Z,1.55
2022-08-01T22:04:34.624Z,1.65
2022-08-01T22:07:04.390Z,1.98
2022-08-01T22:09:33.881Z,1.50
2022-08-01T22:12:06.775Z,1.73
2022-08-01T22:14:39.191Z,1.92
2022-08-01T22:17:08.596Z,1.52
2022-08-01T22:19:45.590Z,1.73
2022-08-01T22:22:50.648Z,1.40
2022-08-01T22:25:05.182Z,1.45
2022-08-01T22:28:08.341Z,1.50
2022-08-01T22:30:22.929Z,1.73
2022-08-01T22:33:07.172Z,1.60
2022-08-01T22:35:39.897Z,1.50
2022-08-01T22:38:09.907Z,1.70
2022-08-01T22:40:41.191Z,1.60
2022-08-01T22:43:19.163Z,1.50
2022-08-01T22:45:53.693Z,1.50
2022-08-01T22:48:27.899Z,1.77
2022-08-01T22:51:08.077Z,1.40
2022-08-01T22:53:44.570Z,1.42
2022-08-01T22:56:14.028Z,1.63
2022-08-01T22:58:42.950Z,1.42
2022-08-01T23:01:20.921Z,1.60
2022-08-01T23:03:56.379Z,1.77
2022-08-01T23:06:34.789Z,1.80
2022-08-01T23:09:05.029Z,1.48
2022-08-01T23:11:34.265Z,1.45
2022-08-01T23:14:05.526Z,2.13
2022-08-01T23:16:34.236Z,1.70
2022-08-01T23:19:02.458Z,2.00
2022-08-01T23:21:33.657Z,1.70
2022-08-01T23:24:02.801Z,1.58
2022-08-01T23:26:31.843Z,1.48
2022-08-01T23:29:00.219Z,1.85
2022-08-01T23:32:02.728Z,1.75
2022-08-01T23:34:20.187Z,1.77
2022-08-01T23:36:50.499Z,2.13
2022-08-01T23:39:18.670Z,1.83
2022-08-01T23:41:57.854Z,1.92
2022-08-01T23:44:27.813Z,2.20
2022-08-01T23:46:55.939Z,1.92
2022-08-01T23:49:24.279Z,1.90
2022-08-01T23:51:54.961Z,2.20
2022-08-01T23:54:23.169Z,2.20
2022-08-01T23:56:52.804Z,2.10
2022-08-01T23:59:21.489Z,2.20
